createdAt,value
2023-04-11T00:01:07.382Z,84514.44
2023-04-11T00:03:36.076Z,84771.25
2023-04-11T00:06:05.128Z,84257.66
2023-04-11T00:08:33.776Z,84000.91
2023-04-11T00:11:02.249Z,83487.44
2023-04-11T00:13:30.963Z,81947.50
2023-04-11T00:16:09.156Z,80408.22
2023-04-11T00:18:39.599Z,78869.66
2023-04-11T00:21:10.401Z,77844.31
2023-04-11T00:23:39.007Z,77331.78
2023-04-11T00:26:08.076Z,76050.72
2023-04-11T00:28:37.565Z,75282.31
2023-04-11T00:31:08.336Z,70419.81
2023-04-11T00:33:37.863Z,68486.31
2023-04-11T00:36:08.249Z,67823.44
2023-04-11T00:38:38.233Z,66128.88
2023-04-11T00:41:06.729Z,62596.72
2023-04-11T00:43:35.262Z,62706.38
2023-04-11T00:46:04.517Z,60442.56
2023-04-11T00:48:34.678Z,59842.97
2023-04-11T00:51:03.259Z,60199.53
2023-04-11T00:53:32.893Z,60014.28
2023-04-11T00:56:01.557Z,59627.88
2023-04-11T00:58:30.143Z,59476.50
2023-04-11T01:00:58.472Z,59223.59
2023-04-11T01:03:28.257Z,58518.69
2023-04-11T01:05:58.605Z,58429.09
2023-04-11T01:08:28.170Z,58683.94
2023-04-11T01:10:56.753Z,58512.72
2023-04-11T01:13:26.512Z,58679.97
2023-04-11T01:15:55.185Z,58737.72
2023-04-11T01:18:24.258Z,58640.16
2023-04-11T01:20:53.636Z,58138.44
2023-04-11T01:23:25.246Z,57975.19
2023-04-11T01:25:53.999Z,58050.84
2023-04-11T01:28:23.473Z,58261.88
2023-04-11T01:30:52.859Z,58188.22
2023-04-11T01:33:22.185Z,58148.38
2023-04-11T01:35:51.173Z,58271.81
2023-04-11T01:38:20.140Z,57712.44
2023-04-11T01:40:50.319Z,57409.88
2023-04-11T01:43:18.958Z,57196.94
2023-04-11T01:45:48.796Z,57055.63
2023-04-11T01:48:17.454Z,56826.75
2023-04-11T01:50:46.726Z,56587.97
2023-04-11T01:53:15.173Z,56649.66
2023-04-11T01:55:43.600Z,56394.97
2023-04-11T01:58:13.436Z,56249.72
2023-04-11T02:00:41.927Z,56422.81
2023-04-11T02:03:10.511Z,56379.03
2023-04-11T02:05:39.775Z,56482.50
2023-04-11T02:08:08.572Z,56192.00
2023-04-11T02:10:37.295Z,56215.88
2023-04-11T02:13:05.911Z,56293.47
2023-04-11T02:15:36.027Z,56174.09
2023-04-11T02:18:04.923Z,56255.69
2023-04-11T02:20:35.383Z,56192.00
2023-04-11T02:23:04.545Z,56205.94
2023-04-11T02:25:35.885Z,56249.72
2023-04-11T02:28:06.783Z,56271.59
2023-04-11T02:30:38.202Z,56245.72
2023-04-11T02:33:06.461Z,56259.66
2023-04-11T02:35:35.047Z,56172.13
2023-04-11T02:38:03.507Z,56192.00
2023-04-11T02:40:31.933Z,56124.34
2023-04-11T02:43:01.495Z,55965.19
2023-04-11T02:45:31.295Z,55947.28
2023-04-11T02:48:01.344Z,55921.44
2023-04-11T02:50:30.059Z,55917.44
2023-04-11T02:52:58.595Z,55949.28
2023-04-11T02:55:29.768Z,55965.19
2023-04-11T02:57:58.609Z,56024.88
2023-04-11T03:00:27.216Z,55987.09
2023-04-11T03:03:03.892Z,55919.44
2023-04-11T03:05:37.383Z,55995.03
2023-04-11T03:08:08.870Z,56060.69
2023-04-11T03:10:38.934Z,56104.47
2023-04-11T03:13:11.156Z,56126.34
2023-04-11T03:15:39.892Z,56106.44
2023-04-11T03:18:12.063Z,56088.53
2023-04-11T03:20:44.092Z,56018.91
2023-04-11T03:23:15.116Z,56048.75
2023-04-11T03:25:44.688Z,56180.06
2023-04-11T03:28:15.915Z,56108.44
2023-04-11T03:30:44.504Z,56190.03
2023-04-11T03:33:16.685Z,56072.63
2023-04-11T03:35:45.639Z,56164.16
2023-04-11T03:38:14.256Z,56124.34
2023-04-11T03:40:42.890Z,56104.47
2023-04-11T03:43:15.634Z,56064.69
2023-04-11T03:45:44.498Z,56112.41
2023-04-11T03:48:21.321Z,56307.41
2023-04-11T03:50:58.660Z,56287.50
2023-04-11T03:53:35.877Z,56341.22
2023-04-11T03:56:15.975Z,56303.44
2023-04-11T03:58:45.041Z,56257.66
2023-04-11T04:01:13.625Z,56219.88
2023-04-11T04:03:43.789Z,56088.53
2023-04-11T04:06:15.622Z,56084.56
2023-04-11T04:08:44.087Z,55991.06
2023-04-11T04:11:12.695Z,55843.84
2023-04-11T04:13:41.085Z,55782.16
2023-04-11T04:16:17.727Z,55863.72
2023-04-11T04:18:53.085Z,55949.28
2023-04-11T04:21:26.880Z,55810.03
2023-04-11T04:24:03.706Z,55636.94
2023-04-11T04:26:57.991Z,55642.91
2023-04-11T04:29:46.635Z,55632.97
2023-04-11T04:32:28.907Z,55662.81
2023-04-11T04:35:02.744Z,55599.16
2023-04-11T04:37:39.650Z,55503.66
2023-04-11T04:40:20.744Z,55543.44
2023-04-11T04:43:02.389Z,55535.50
2023-04-11T04:45:53.905Z,55523.56
2023-04-11T04:48:27.261Z,55531.50
2023-04-11T04:50:57.291Z,55623.03
2023-04-11T04:53:27.200Z,55664.78
2023-04-11T04:55:59.490Z,55702.59
2023-04-11T04:58:30.511Z,55732.44
2023-04-11T05:01:03.510Z,55754.31
2023-04-11T05:03:35.755Z,55630.97
2023-04-11T05:06:09.616Z,55674.75
2023-04-11T05:08:39.617Z,55682.69
2023-04-11T05:11:11.344Z,55694.63
2023-04-11T05:13:39.912Z,55710.56
2023-04-11T05:16:09.884Z,55766.25
2023-04-11T05:18:38.439Z,55768.25
2023-04-11T05:21:08.805Z,55634.94
2023-04-11T05:23:42.624Z,55611.09
2023-04-11T05:26:12.834Z,55597.16
2023-04-11T05:28:43.260Z,55491.72
2023-04-11T05:31:17.115Z,55380.34
2023-04-11T05:33:46.884Z,55388.28
2023-04-11T05:36:17.052Z,55372.38
2023-04-11T05:38:46.912Z,55400.22
2023-04-11T05:41:15.317Z,55364.41
2023-04-11T05:43:43.981Z,55364.41
2023-04-11T05:46:12.872Z,55366.41
2023-04-11T05:48:41.530Z,55374.38
2023-04-11T05:51:13.991Z,55467.84
2023-04-11T05:53:45.917Z,55445.97
2023-04-11T05:56:14.475Z,55471.84
2023-04-11T05:58:44.346Z,55519.56
2023-04-11T06:01:18.712Z,55559.34
2023-04-11T06:03:47.645Z,55678.72
2023-04-11T06:06:16.563Z,55650.88
2023-04-11T06:08:46.567Z,55539.47
2023-04-11T06:11:15.214Z,55672.75
2023-04-11T06:13:43.694Z,55682.69
2023-04-11T06:16:12.159Z,55766.25
2023-04-11T06:18:40.738Z,55869.69
2023-04-11T06:21:09.208Z,55756.31
2023-04-11T06:23:37.768Z,55762.28
2023-04-11T06:26:08.764Z,55798.09
2023-04-11T06:28:38.908Z,55744.38
2023-04-11T06:31:10.159Z,55722.47
2023-04-11T06:33:39.184Z,55686.69
2023-04-11T06:36:08.179Z,55682.69
2023-04-11T06:38:38.233Z,55726.47
2023-04-11T06:41:08.790Z,55650.88
2023-04-11T06:43:37.362Z,55627.00
2023-04-11T06:46:08.267Z,55507.63
2023-04-11T06:48:36.912Z,55473.81
2023-04-11T06:51:05.751Z,55334.59
2023-04-11T06:53:36.907Z,55207.28
2023-04-11T06:56:05.708Z,55205.28
2023-04-11T06:58:35.800Z,55135.66
2023-04-11T07:01:04.521Z,55006.38
2023-04-11T07:03:33.074Z,55054.13
2023-04-11T07:06:01.896Z,55052.13
2023-04-11T07:08:30.801Z,54928.81
2023-04-11T07:10:59.466Z,54970.59
2023-04-11T07:13:27.936Z,54789.59
2023-04-11T07:15:58.395Z,54672.25
2023-04-11T07:18:27.519Z,54716.00
2023-04-11T07:20:56.311Z,54676.25
2023-04-11T07:23:25.080Z,54616.56
2023-04-11T07:25:54.538Z,54578.78
2023-04-11T07:28:23.738Z,54564.88
2023-04-11T07:30:53.250Z,54485.31
2023-04-11T07:33:23.315Z,54453.50
2023-04-11T07:35:52.294Z,54399.81
2023-04-11T07:38:29.717Z,54421.69
2023-04-11T07:40:58.998Z,54362.03
2023-04-11T07:43:28.090Z,54368.00
2023-04-11T07:45:58.536Z,54298.41
2023-04-11T07:48:29.395Z,54250.69
2023-04-11T07:50:57.766Z,54230.78
2023-04-11T07:53:26.966Z,54226.81
2023-04-11T07:55:55.304Z,54195.00
2023-04-11T07:58:23.651Z,54171.13
2023-04-11T08:00:53.121Z,54129.38
2023-04-11T08:03:23.577Z,54095.56
2023-04-11T08:05:54.036Z,54071.72
2023-04-11T08:08:22.556Z,54041.88
2023-04-11T08:10:52.348Z,54016.03
2023-04-11T08:13:20.904Z,54012.06
2023-04-11T08:15:49.385Z,54000.13
2023-04-11T08:18:21.547Z,53956.38
2023-04-11T08:20:51.175Z,53922.59
2023-04-11T08:23:22.931Z,53936.50
2023-04-11T08:25:51.652Z,53914.63
2023-04-11T08:28:20.069Z,53884.81
2023-04-11T08:30:48.458Z,53912.66
2023-04-11T08:33:16.985Z,53878.84
2023-04-11T08:35:45.791Z,53900.72
2023-04-11T08:38:14.389Z,53910.66
2023-04-11T08:40:44.452Z,53928.56
2023-04-11T08:43:13.568Z,53872.88
2023-04-11T08:45:42.183Z,53888.78
2023-04-11T08:48:12.505Z,53827.16
2023-04-11T08:50:42.379Z,53854.97
2023-04-11T08:53:11.169Z,53860.94
2023-04-11T08:55:47.966Z,53868.91
2023-04-11T08:58:16.757Z,53835.09
2023-04-11T09:00:45.593Z,53837.09
2023-04-11T09:03:19.071Z,53781.41
2023-04-11T09:05:48.207Z,53745.63
2023-04-11T09:08:18.142Z,53755.56
2023-04-11T09:10:48.148Z,53769.50
2023-04-11T09:13:22.777Z,53769.50
2023-04-11T09:16:06.847Z,53713.81
2023-04-11T09:18:36.831Z,53721.78
2023-04-11T09:21:08.165Z,53725.75
2023-04-11T09:23:37.354Z,53721.78
2023-04-11T09:26:09.683Z,53684.00
2023-04-11T09:28:44.809Z,53697.91
2023-04-11T09:31:14.170Z,53686.00
2023-04-11T09:33:55.050Z,53713.81
2023-04-11T09:36:25.579Z,53723.75
2023-04-11T09:38:56.196Z,53689.97
2023-04-11T09:41:33.681Z,53670.09
2023-04-11T09:44:03.204Z,53662.13
2023-04-11T09:46:31.935Z,53668.09
2023-04-11T09:49:01.783Z,53654.19
2023-04-11T09:51:35.754Z,53654.19
2023-04-11T09:54:06.507Z,53598.50
2023-04-11T09:56:37.669Z,53634.28
2023-04-11T09:59:06.351Z,53610.44
2023-04-11T10:01:35.085Z,53614.41
2023-04-11T10:04:04.653Z,53644.22
2023-04-11T10:06:38.889Z,53638.28
2023-04-11T10:09:09.735Z,53642.25
2023-04-11T10:11:42.854Z,53638.28
2023-04-11T10:14:18.782Z,53634.28
2023-04-11T10:17:18.613Z,53662.13
2023-04-11T10:19:51.745Z,53634.28
2023-04-11T10:22:53.799Z,53624.34
2023-04-11T10:25:24.959Z,53638.28
2023-04-11T10:28:00.828Z,53654.19
2023-04-11T10:31:00.787Z,53638.28
2023-04-11T10:33:29.219Z,53614.41
2023-04-11T10:35:59.140Z,53598.50
2023-04-11T10:38:49.363Z,53590.56
2023-04-11T10:41:31.519Z,53602.47
2023-04-11T10:44:18.444Z,53612.44
2023-04-11T10:46:49.359Z,53598.50
2023-04-11T10:49:41.814Z,53590.56
2023-04-11T10:52:21.608Z,53604.47
2023-04-11T10:54:51.643Z,53556.75
2023-04-11T10:57:20.690Z,53580.63
2023-04-11T11:00:00.873Z,53592.53
2023-04-11T11:02:39.732Z,53548.81
2023-04-11T11:05:19.713Z,53566.69
2023-04-11T11:07:51.187Z,53564.72
2023-04-11T11:10:42.712Z,53546.81
2023-04-11T11:13:11.507Z,53552.78
2023-04-11T11:15:48.863Z,53552.78
2023-04-11T11:18:18.124Z,53562.72
2023-04-11T11:20:46.727Z,53534.88
2023-04-11T11:23:15.186Z,53572.66
2023-04-11T11:25:53.734Z,53554.78
2023-04-11T11:28:22.833Z,53550.78
2023-04-11T11:30:55.102Z,53552.78
2023-04-11T11:33:27.800Z,53582.59
2023-04-11T11:35:58.056Z,53558.75
2023-04-11T11:38:28.524Z,53546.81
2023-04-11T11:40:57.815Z,53564.72
2023-04-11T11:43:30.215Z,53509.03
2023-04-11T11:46:11.335Z,53530.91
2023-04-11T11:48:40.079Z,53528.94
2023-04-11T11:51:08.799Z,53546.81
2023-04-11T11:53:37.648Z,53538.88
2023-04-11T11:56:16.399Z,53534.88
2023-04-11T11:58:45.945Z,53515.00
2023-04-11T12:01:17.473Z,53479.22
2023-04-11T12:03:51.645Z,53515.00
2023-04-11T12:06:20.853Z,53503.06
2023-04-11T12:08:54.054Z,53532.91
2023-04-11T12:11:22.734Z,53524.94
2023-04-11T12:13:54.909Z,53544.81
2023-04-11T12:16:25.119Z,53526.94
2023-04-11T12:18:53.685Z,53528.94
2023-04-11T12:21:22.260Z,53558.75
2023-04-11T12:23:50.838Z,53546.81
2023-04-11T12:26:21.059Z,53526.94
2023-04-11T12:28:50.677Z,53459.34
2023-04-11T12:31:20.289Z,53429.53
2023-04-11T12:33:50.420Z,53435.47
2023-04-11T12:36:18.994Z,53421.56
2023-04-11T12:38:47.480Z,53409.63
2023-04-11T12:41:31.714Z,53431.50
2023-04-11T12:44:02.590Z,53409.63
2023-04-11T12:46:31.333Z,53469.28
2023-04-11T12:49:01.294Z,53473.25
2023-04-11T12:51:29.647Z,53469.28
2023-04-11T12:53:58.529Z,53413.63
2023-04-11T12:56:27.353Z,53419.59
2023-04-11T12:58:56.145Z,53403.69
2023-04-11T13:01:24.902Z,53393.75
2023-04-11T13:03:53.609Z,53395.72
2023-04-11T13:06:24.725Z,53467.28
2023-04-11T13:08:53.347Z,53381.81
2023-04-11T13:11:21.888Z,53355.97
2023-04-11T13:13:50.659Z,53363.91
2023-04-11T13:16:19.219Z,53359.94
2023-04-11T13:18:47.995Z,53350.00
2023-04-11T13:21:16.861Z,53355.97
2023-04-11T13:23:46.748Z,53336.09
2023-04-11T13:26:15.453Z,53296.31
2023-04-11T13:28:44.158Z,53365.91
2023-04-11T13:31:14.271Z,53320.19
2023-04-11T13:33:45.005Z,53296.31
2023-04-11T13:36:13.691Z,53304.28
2023-04-11T13:38:42.411Z,53320.19
2023-04-11T13:41:13.680Z,53304.28
2023-04-11T13:43:43.120Z,53312.22
2023-04-11T13:46:12.349Z,53328.13
2023-04-11T13:48:40.915Z,53322.16
2023-04-11T13:51:09.665Z,53288.38
2023-04-11T13:53:38.441Z,53312.22
2023-04-11T13:56:09.319Z,53320.19
2023-04-11T13:58:39.500Z,53340.06
2023-04-11T14:01:08.421Z,53342.06
2023-04-11T14:03:37.918Z,53334.09
2023-04-11T14:06:09.007Z,53318.19
2023-04-11T14:08:38.177Z,53346.03
2023-04-11T14:11:06.941Z,53340.06
2023-04-11T14:13:35.682Z,53352.00
2023-04-11T14:16:09.317Z,53371.88
2023-04-11T14:18:38.194Z,53397.72
2023-04-11T14:21:07.422Z,53348.00
2023-04-11T14:23:35.982Z,53379.81
2023-04-11T14:26:04.448Z,53401.69
2023-04-11T14:28:33.919Z,53367.91
2023-04-11T14:31:02.635Z,53381.81
2023-04-11T14:33:32.668Z,53371.88
2023-04-11T14:36:02.328Z,53413.63
2023-04-11T14:38:30.948Z,53381.81
2023-04-11T14:40:59.377Z,53381.81
2023-04-11T14:43:27.838Z,53375.84
2023-04-11T14:45:57.443Z,53411.63
2023-04-11T14:48:27.620Z,53425.53
2023-04-11T14:50:57.728Z,53437.47
2023-04-11T14:53:26.557Z,53437.47
2023-04-11T14:55:54.995Z,53405.66
2023-04-11T14:58:23.475Z,53429.53
2023-04-11T15:00:52.339Z,53401.69
2023-04-11T15:03:20.932Z,53417.59
2023-04-11T15:05:49.716Z,53399.69
2023-04-11T15:08:19.730Z,53401.69
2023-04-11T15:10:54.002Z,53411.63
2023-04-11T15:13:23.139Z,53415.59
2023-04-11T15:15:52.068Z,53435.47
2023-04-11T15:18:25.559Z,53439.47
2023-04-11T15:20:54.239Z,53439.47
2023-04-11T15:23:24.869Z,53395.72
2023-04-11T15:25:54.522Z,53403.69
2023-04-11T15:28:23.536Z,53427.53
2023-04-11T15:30:53.305Z,53429.53
2023-04-11T15:33:24.422Z,53425.53
2023-04-11T15:35:54.868Z,53443.44
2023-04-11T15:38:25.012Z,53463.31
2023-04-11T15:40:54.500Z,53435.47
2023-04-11T15:43:23.601Z,53443.44
2023-04-11T15:45:52.862Z,53419.59
2023-04-11T15:48:21.445Z,53429.53
2023-04-11T15:50:50.886Z,53403.69
2023-04-11T15:53:19.400Z,53439.47
2023-04-11T15:55:49.404Z,53471.28
2023-04-11T15:58:18.049Z,53455.38
2023-04-11T16:00:47.170Z,53429.53
2023-04-11T16:03:16.879Z,53443.44
2023-04-11T16:05:45.831Z,53443.44
2023-04-11T16:08:14.504Z,53459.34
2023-04-11T16:10:43.091Z,53483.19
2023-04-11T16:13:12.953Z,53495.13
2023-04-11T16:15:41.553Z,53443.44
2023-04-11T16:18:10.271Z,53505.06
2023-04-11T16:20:39.052Z,53522.97
2023-04-11T16:23:07.617Z,53499.09
2023-04-11T16:25:36.265Z,53518.97
2023-04-11T16:28:04.901Z,53526.94
2023-04-11T16:30:34.885Z,53507.06
2023-04-11T16:33:03.339Z,53518.97
2023-04-11T16:35:34.183Z,53546.81
2023-04-11T16:38:03.238Z,53493.13
2023-04-11T16:40:32.487Z,53491.16
2023-04-11T16:43:00.948Z,53495.13
2023-04-11T16:45:29.998Z,53509.03
2023-04-11T16:47:59.940Z,53483.19
2023-04-11T16:50:28.459Z,53530.91
2023-04-11T16:52:56.955Z,53515.00
2023-04-11T16:55:25.839Z,53515.00
2023-04-11T16:57:54.227Z,53530.91
2023-04-11T17:00:24.003Z,53511.03
2023-04-11T17:02:52.517Z,53518.97
2023-04-11T17:05:24.101Z,53538.88
2023-04-11T17:07:52.504Z,53526.94
2023-04-11T17:10:22.156Z,53518.97
2023-04-11T17:12:50.564Z,53544.81
2023-04-11T17:15:19.051Z,53509.03
2023-04-11T17:17:47.609Z,53526.94
2023-04-11T17:20:16.433Z,53536.88
2023-04-11T17:22:47.023Z,53546.81
2023-04-11T17:25:15.749Z,53554.78
2023-04-11T17:27:44.232Z,53542.84
2023-04-11T17:30:13.141Z,53542.84
2023-04-11T17:32:41.667Z,53548.81
2023-04-11T17:35:12.692Z,53566.69
2023-04-11T17:37:41.130Z,53582.59
2023-04-11T17:40:15.389Z,53546.81
2023-04-11T17:42:43.865Z,53574.66
2023-04-11T17:47:44.750Z,53552.78
2023-04-11T17:50:14.605Z,53544.81
2023-04-11T17:52:44.600Z,53576.63
2023-04-11T17:55:17.589Z,53590.56
2023-04-11T17:57:47.345Z,53564.72
2023-04-11T18:00:18.919Z,53604.47
2023-04-11T18:02:49.192Z,53550.78
2023-04-11T18:05:24.536Z,53582.59
2023-04-11T18:07:56.665Z,53580.63
2023-04-11T18:10:27.532Z,53570.69
2023-04-11T18:12:58.027Z,53576.63
2023-04-11T18:15:27.492Z,53614.41
2023-04-11T18:17:56.125Z,53646.22
2023-04-11T18:20:24.702Z,53606.47
2023-04-11T18:22:56.352Z,53566.69
2023-04-11T18:25:28.483Z,53620.38
2023-04-11T18:27:56.985Z,53640.25
2023-04-11T18:30:25.890Z,53624.34
2023-04-11T18:32:54.836Z,53634.28
2023-04-11T18:35:25.280Z,53630.31
2023-04-11T18:37:54.177Z,53660.13
2023-04-11T18:40:22.816Z,53642.25
2023-04-11T18:42:55.766Z,53632.31
2023-04-11T18:45:25.273Z,53634.28
2023-04-11T18:47:54.441Z,53638.28
2023-04-11T18:50:24.162Z,53628.31
2023-04-11T18:52:55.915Z,53654.19
2023-04-11T18:55:26.791Z,53642.25
2023-04-11T18:57:59.489Z,53650.19
2023-04-11T19:00:30.214Z,53624.34
2023-04-11T19:02:59.990Z,53656.16
2023-04-11T19:05:29.409Z,53666.09
2023-04-11T19:08:00.680Z,53634.28
2023-04-11T19:10:29.267Z,53658.16
2023-04-11T19:12:59.117Z,53632.31
2023-04-11T19:15:27.836Z,53699.91
2023-04-11T19:17:57.726Z,53674.06
2023-04-11T19:20:27.880Z,53668.09
2023-04-11T19:22:56.392Z,53689.97
2023-04-11T19:25:25.102Z,53650.19
2023-04-11T19:27:53.681Z,53674.06
2023-04-11T19:30:23.510Z,53646.22
2023-04-11T19:32:52.187Z,53689.97
2023-04-11T19:35:24.422Z,53674.06
2023-04-11T19:37:53.179Z,53650.19
2023-04-11T19:40:23.619Z,53658.16
2023-04-11T19:42:52.564Z,53709.84
2023-04-11T19:45:22.246Z,53711.84
2023-04-11T19:47:52.028Z,53699.91
2023-04-11T19:50:20.640Z,53682.00
2023-04-11T19:52:49.308Z,53672.06
2023-04-11T19:55:17.783Z,53709.84
2023-04-11T19:57:46.470Z,53699.91
2023-04-11T20:00:17.098Z,53664.13
2023-04-11T20:02:47.258Z,53670.09
2023-04-11T20:05:19.357Z,53666.09
2023-04-11T20:07:48.350Z,53668.09
2023-04-11T20:10:17.733Z,53691.94
2023-04-11T20:12:46.610Z,53634.28
2023-04-11T20:15:15.188Z,53682.00
2023-04-11T20:17:46.108Z,53658.16
2023-04-11T20:20:15.919Z,53686.00
2023-04-11T20:22:46.002Z,53666.09
2023-04-11T20:25:14.823Z,53670.09
2023-04-11T20:27:44.366Z,53672.06
2023-04-11T20:30:14.400Z,53662.13
2023-04-11T20:32:43.868Z,53697.91
2023-04-11T20:35:13.285Z,53686.00
2023-04-11T20:37:43.801Z,53687.97
2023-04-11T20:40:14.812Z,53652.19
2023-04-11T20:42:45.955Z,53678.03
2023-04-11T20:45:16.331Z,53676.03
2023-04-11T20:47:46.696Z,53707.84
2023-04-11T20:50:17.098Z,53705.88
2023-04-11T20:52:47.946Z,53717.78
2023-04-11T20:55:18.182Z,53729.72
2023-04-11T20:57:46.793Z,53743.66
2023-04-11T21:00:17.330Z,53723.75
2023-04-11T21:02:49.970Z,53777.44
2023-04-11T21:05:20.076Z,53769.50
2023-04-11T21:07:48.724Z,53735.69
2023-04-11T21:10:20.952Z,53739.66
2023-04-11T21:12:51.848Z,53757.56
2023-04-11T21:15:21.063Z,53745.63
2023-04-11T21:17:50.384Z,53763.53
2023-04-11T21:20:19.724Z,53731.72
2023-04-11T21:22:49.661Z,53739.66
2023-04-11T21:25:19.659Z,53767.50
2023-04-11T21:27:49.891Z,53757.56
2023-04-11T21:30:18.345Z,53741.66
2023-04-11T21:32:46.929Z,53771.47
2023-04-11T21:35:15.519Z,53745.63
2023-04-11T21:37:44.783Z,53725.75
2023-04-11T21:40:14.646Z,53735.69
2023-04-11T21:42:44.494Z,53745.63
2023-04-11T21:45:14.594Z,53773.47
2023-04-11T21:47:43.250Z,53749.59
2023-04-11T21:50:12.661Z,53761.53
2023-04-11T21:52:41.274Z,53773.47
2023-04-11T21:55:11.575Z,53773.47
2023-04-11T21:57:40.369Z,53773.47
2023-04-11T22:00:11.929Z,53745.63
2023-04-11T22:02:40.831Z,53767.50
2023-04-11T22:05:10.033Z,53805.28
2023-04-11T22:07:55.005Z,53749.59
2023-04-11T22:10:32.440Z,53785.41
2023-04-11T22:13:06.323Z,53787.38
2023-04-11T22:15:38.306Z,53757.56
2023-04-11T22:18:09.541Z,53771.47
2023-04-11T22:20:40.641Z,53777.44
2023-04-11T22:23:10.333Z,53771.47
2023-04-11T22:25:38.899Z,53791.34
2023-04-11T22:28:07.281Z,53765.50
2023-04-11T22:30:38.213Z,53777.44
2023-04-11T22:33:06.644Z,53769.50
2023-04-11T22:35:35.258Z,53785.41
2023-04-11T22:38:03.987Z,53793.34
2023-04-11T22:40:32.609Z,53781.41
2023-04-11T22:43:01.734Z,53779.44
2023-04-11T22:45:30.248Z,53805.28
2023-04-11T22:48:00.150Z,53761.53
2023-04-11T22:50:28.736Z,53783.41
2023-04-11T22:52:57.074Z,53801.31
2023-04-11T22:55:25.476Z,53797.31
2023-04-11T22:57:53.905Z,53845.03
2023-04-11T23:00:24.050Z,53829.13
2023-04-11T23:02:52.784Z,53823.16
2023-04-11T23:05:22.623Z,53862.94
2023-04-11T23:07:51.804Z,53849.03
2023-04-11T23:10:20.070Z,53849.03
2023-04-11T23:12:49.563Z,53876.84
2023-04-11T23:15:18.499Z,53912.66
2023-04-11T23:17:46.845Z,53896.75
2023-04-11T23:20:15.700Z,53940.47
2023-04-11T23:22:46.287Z,53968.31
2023-04-11T23:25:15.524Z,53968.31
2023-04-11T23:27:44.786Z,54047.84
2023-04-11T23:30:15.159Z,54008.09
2023-04-11T23:32:43.672Z,54039.91
2023-04-11T23:35:12.944Z,54051.81
2023-04-11T23:37:41.463Z,54087.63
2023-04-11T23:40:14.007Z,54139.31
2023-04-11T23:42:43.101Z,54135.34
2023-04-11T23:45:14.353Z,54153.25
2023-04-11T23:47:42.708Z,54161.19
2023-04-11T23:50:12.243Z,54258.63
2023-04-11T23:52:40.867Z,54306.34
2023-04-11T23:55:12.342Z,54369.97
2023-04-11T23:57:41.055Z,54387.88
